createdAt,value
2023-05-08T00:02:00.937Z,3.90
2023-05-08T00:04:27.493Z,3.15
2023-05-08T00:06:54.090Z,3.58
2023-05-08T00:09:20.767Z,3.25
2023-05-08T00:11:47.282Z,3.40
2023-05-08T00:14:13.745Z,3.63
2023-05-08T00:16:40.808Z,3.83
2023-05-08T00:19:07.909Z,3.65
2023-05-08T00:21:34.409Z,3.58
2023-05-08T00:24:00.958Z,3.85
2023-05-08T00:26:27.387Z,3.58
2023-05-08T00:28:53.883Z,3.50
2023-05-08T00:31:20.402Z,3.65
2023-05-08T00:33:46.882Z,3.67
2023-05-08T00:36:15.742Z,3.72
2023-05-08T00:38:42.303Z,3.47
2023-05-08T00:41:08.798Z,3.47
2023-05-08T00:43:35.973Z,3.72
2023-05-08T00:46:02.675Z,3.47
2023-05-08T00:48:30.833Z,3.63
2023-05-08T00:50:57.955Z,3.60
2023-05-08T00:53:26.443Z,4.10
2023-05-08T00:55:53.008Z,3.47
2023-05-08T00:58:23.255Z,3.67
2023-05-08T01:00:50.917Z,3.75
2023-05-08T01:03:17.656Z,3.60
2023-05-08T01:05:44.310Z,3.97
2023-05-08T01:08:10.818Z,3.55
2023-05-08T01:10:57.541Z,3.50
2023-05-08T01:13:44.233Z,3.60
2023-05-08T01:16:16.051Z,3.22
2023-05-08T01:18:45.872Z,2.75
2023-05-08T01:21:17.832Z,2.63
2023-05-08T01:23:53.225Z,3.30
2023-05-08T01:26:34.775Z,3.40
2023-05-08T01:29:26.964Z,3.45
2023-05-08T01:32:06.080Z,3.05
2023-05-08T01:34:33.490Z,3.55
2023-05-08T01:37:02.400Z,3.60
2023-05-08T01:39:37.079Z,3.20
2023-05-08T01:42:10.344Z,3.42
2023-05-08T01:44:45.429Z,3.08
2023-05-08T01:47:12.238Z,3.60
2023-05-08T01:49:44.520Z,3.67
2023-05-08T01:52:14.924Z,2.95
2023-05-08T01:54:44.809Z,3.22
2023-05-08T01:57:12.519Z,3.35
2023-05-08T01:59:41.735Z,2.90
2023-05-08T02:02:09.601Z,3.33
2023-05-08T02:04:36.315Z,3.38
2023-05-08T02:07:03.587Z,3.13
2023-05-08T02:09:31.331Z,3.22
2023-05-08T02:11:59.244Z,3.20
2023-05-08T02:14:27.010Z,3.28
2023-05-08T02:16:54.861Z,3.20
2023-05-08T02:19:23.326Z,3.50
2023-05-08T02:21:50.874Z,3.25
2023-05-08T02:24:17.400Z,3.35
2023-05-08T02:26:45.110Z,4.10
2023-05-08T02:29:11.655Z,3.83
2023-05-08T02:31:38.925Z,3.85
2023-05-08T02:34:06.542Z,3.90
2023-05-08T02:36:33.859Z,4.10
2023-05-08T02:39:02.333Z,3.50
2023-05-08T02:41:30.660Z,3.58
2023-05-08T02:43:57.540Z,3.60
2023-05-08T02:46:41.868Z,3.47
2023-05-08T02:49:11.919Z,3.63
2023-05-08T02:51:41.448Z,3.50
2023-05-08T02:54:07.940Z,3.50
2023-05-08T02:56:37.432Z,3.67
2023-05-08T02:59:06.818Z,3.40
2023-05-08T03:01:45.980Z,3.58
2023-05-08T03:04:16.511Z,4.03
2023-05-08T03:06:45.557Z,3.70
2023-05-08T03:09:15.204Z,3.40
2023-05-08T03:11:43.798Z,3.50
2023-05-08T03:14:11.614Z,3.53
2023-05-08T03:16:39.803Z,3.38
2023-05-08T03:19:08.252Z,3.30
2023-05-08T03:21:35.145Z,2.90
2023-05-08T03:24:03.770Z,3.38
2023-05-08T03:26:30.803Z,3.47
2023-05-08T03:28:57.997Z,3.83
2023-05-08T03:31:25.733Z,3.20
2023-05-08T03:33:53.568Z,3.40
2023-05-08T03:36:20.402Z,3.17
2023-05-08T03:38:46.938Z,3.47
2023-05-08T03:41:13.575Z,3.65
2023-05-08T03:43:41.009Z,3.17
2023-05-08T03:46:07.952Z,3.17
2023-05-08T03:48:35.050Z,3.22
2023-05-08T03:51:02.408Z,2.95
2023-05-08T03:53:32.434Z,3.45
2023-05-08T03:55:59.634Z,3.00
2023-05-08T03:58:49.455Z,2.80
2023-05-08T04:01:24.586Z,3.13
2023-05-08T04:03:51.554Z,2.92
2023-05-08T04:06:21.255Z,2.83
2023-05-08T04:09:08.640Z,3.33
2023-05-08T04:11:38.377Z,3.15
2023-05-08T04:14:08.529Z,2.60
2023-05-08T04:16:39.628Z,3.03
2023-05-08T04:19:15.717Z,3.40
2023-05-08T04:21:43.518Z,2.65
2023-05-08T04:24:12.667Z,3.15
2023-05-08T04:26:40.016Z,3.17
2023-05-08T04:29:07.130Z,2.92
2023-05-08T04:31:35.224Z,2.80
2023-05-08T04:34:02.642Z,3.08
2023-05-08T04:36:31.219Z,3.20
2023-05-08T04:38:59.086Z,2.78
2023-05-08T04:41:26.411Z,2.78
2023-05-08T04:43:53.679Z,2.85
2023-05-08T04:46:20.234Z,3.30
2023-05-08T04:48:46.787Z,2.88
2023-05-08T04:51:13.348Z,2.97
2023-05-08T04:53:39.873Z,3.03
2023-05-08T04:56:06.479Z,2.50
2023-05-08T04:58:33.076Z,3.22
2023-05-08T05:01:03.458Z,3.00
2023-05-08T05:03:30.121Z,2.55
2023-05-08T05:06:00.969Z,3.17
2023-05-08T05:08:27.767Z,2.75
2023-05-08T05:10:54.359Z,3.05
2023-05-08T05:13:21.114Z,3.08
2023-05-08T05:15:47.952Z,3.05
2023-05-08T05:18:14.504Z,3.10
2023-05-08T05:20:41.277Z,3.08
2023-05-08T05:23:07.811Z,3.15
2023-05-08T05:25:34.903Z,0.20
2023-05-08T05:28:02.210Z,0.30
2023-05-08T05:30:28.765Z,0.20
2023-05-08T05:32:55.601Z,0.20
2023-05-08T05:35:24.176Z,0.30
2023-05-08T05:37:51.947Z,0.20
2023-05-08T05:40:18.486Z,0.30
2023-05-08T05:42:48.804Z,0.20
2023-05-08T05:45:15.629Z,0.20
2023-05-08T05:47:46.601Z,0.20
2023-05-08T05:50:13.452Z,0.20
2023-05-08T05:52:40.108Z,0.25
2023-05-08T05:55:06.903Z,0.30
2023-05-08T05:57:33.819Z,0.10
2023-05-08T06:00:00.891Z,0.10
2023-05-08T06:02:27.708Z,2.80
2023-05-08T06:04:54.393Z,3.10
2023-05-08T06:07:24.734Z,2.60
2023-05-08T06:09:53.284Z,2.45
2023-05-08T06:12:20.494Z,3.00
2023-05-08T06:14:47.217Z,2.47
2023-05-08T06:17:13.965Z,2.60
2023-05-08T06:19:40.673Z,2.50
2023-05-08T06:22:07.175Z,2.67
2023-05-08T06:24:35.646Z,2.92
2023-05-08T06:27:02.814Z,2.40
2023-05-08T06:29:29.595Z,2.45
2023-05-08T06:31:57.374Z,2.42
2023-05-08T06:34:24.074Z,2.38
2023-05-08T06:36:50.824Z,2.50
2023-05-08T06:39:17.417Z,2.55
2023-05-08T06:41:46.916Z,2.33
2023-05-08T06:44:13.435Z,2.40
2023-05-08T06:46:40.064Z,2.70
2023-05-08T06:49:06.817Z,2.75
2023-05-08T06:51:35.536Z,2.20
2023-05-08T06:54:02.286Z,2.72
2023-05-08T06:56:28.847Z,2.65
2023-05-08T06:59:04.991Z,2.78
2023-05-08T07:01:34.766Z,2.33
2023-05-08T07:04:01.400Z,2.45
2023-05-08T07:06:28.162Z,2.35
2023-05-08T07:08:54.820Z,2.42
2023-05-08T07:11:21.501Z,2.33
2023-05-08T07:13:48.438Z,2.30
2023-05-08T07:16:15.832Z,2.70
2023-05-08T07:18:42.818Z,2.00
2023-05-08T07:21:09.639Z,2.25
2023-05-08T07:23:36.268Z,2.20
2023-05-08T07:26:02.957Z,2.50
2023-05-08T07:28:29.536Z,2.20
2023-05-08T07:30:57.375Z,2.35
2023-05-08T07:33:23.997Z,2.13
2023-05-08T07:35:50.649Z,2.40
2023-05-08T07:38:17.444Z,2.10
2023-05-08T07:40:44.005Z,2.38
2023-05-08T07:43:10.683Z,2.40
2023-05-08T07:45:37.255Z,2.33
2023-05-08T07:48:03.951Z,2.38
2023-05-08T07:50:30.612Z,2.15
2023-05-08T07:52:57.311Z,2.03
2023-05-08T07:55:23.812Z,2.65
2023-05-08T07:57:50.449Z,2.05
2023-05-08T08:00:17.301Z,2.40
2023-05-08T08:02:44.302Z,2.45
2023-05-08T08:05:11.652Z,2.70
2023-05-08T08:07:38.927Z,2.05
2023-05-08T08:10:05.779Z,2.40
2023-05-08T08:12:32.395Z,2.28
2023-05-08T08:14:58.994Z,2.17
2023-05-08T08:17:28.285Z,2.20
2023-05-08T08:19:55.418Z,1.98
2023-05-08T08:22:22.323Z,2.13
2023-05-08T08:24:48.893Z,2.13
2023-05-08T08:27:15.532Z,2.40
2023-05-08T08:29:42.057Z,1.58
2023-05-08T08:32:08.760Z,2.30
2023-05-08T08:34:35.492Z,2.40
2023-05-08T08:37:02.052Z,2.30
2023-05-08T08:39:32.354Z,1.75
2023-05-08T08:41:58.892Z,2.38
2023-05-08T08:44:25.613Z,2.20
2023-05-08T08:46:53.127Z,2.10
2023-05-08T08:49:23.064Z,2.20
2023-05-08T08:51:57.693Z,2.10
2023-05-08T08:54:24.703Z,2.05
2023-05-08T08:56:52.114Z,2.03
2023-05-08T08:59:19.117Z,2.22
2023-05-08T09:01:48.045Z,2.08
2023-05-08T09:04:16.098Z,1.92
2023-05-08T09:06:42.955Z,2.13
2023-05-08T09:09:12.107Z,2.35
2023-05-08T09:11:39.974Z,2.22
2023-05-08T09:14:06.674Z,2.17
2023-05-08T09:16:33.354Z,1.80
2023-05-08T09:19:00.157Z,1.83
2023-05-08T09:21:27.272Z,2.40
2023-05-08T09:23:59.814Z,1.92
2023-05-08T09:26:32.477Z,1.83
2023-05-08T09:29:17.512Z,6.07
2023-05-08T09:31:45.158Z,2.30
2023-05-08T09:34:21.786Z,2.38
2023-05-08T09:36:48.342Z,2.45
2023-05-08T09:39:21.512Z,4.32
2023-05-08T09:42:09.601Z,3.72
2023-05-08T09:44:46.173Z,3.65
2023-05-08T09:47:17.078Z,2.75
2023-05-08T09:49:56.955Z,3.05
2023-05-08T09:52:23.612Z,2.65
2023-05-08T09:55:10.414Z,3.13
2023-05-08T09:57:41.097Z,3.30
2023-05-08T10:00:13.071Z,3.28
2023-05-08T10:02:40.935Z,6.22
2023-05-08T10:05:27.773Z,8.80
2023-05-08T10:07:54.578Z,3.45
2023-05-08T10:10:27.919Z,2.83
2023-05-08T10:12:55.385Z,2.15
2023-05-08T10:15:23.331Z,3.00
2023-05-08T10:17:49.928Z,3.80
2023-05-08T10:20:17.948Z,5.47
2023-05-08T10:22:46.584Z,3.38
2023-05-08T10:25:16.967Z,2.97
2023-05-08T10:27:48.392Z,6.18
2023-05-08T10:30:17.425Z,16.98
2023-05-08T10:32:44.593Z,6.55
2023-05-08T10:35:11.848Z,3.55
2023-05-08T10:37:39.126Z,3.65
2023-05-08T10:40:06.531Z,3.58
2023-05-08T10:42:34.326Z,2.90
2023-05-08T10:45:01.098Z,3.00
2023-05-08T10:47:45.913Z,3.03
2023-05-08T10:50:21.508Z,2.88
2023-05-08T10:52:52.927Z,3.20
2023-05-08T10:55:29.467Z,2.72
2023-05-08T10:58:07.104Z,2.85
2023-05-08T11:00:53.653Z,2.67
2023-05-08T11:03:31.537Z,3.22
2023-05-08T11:06:00.389Z,2.50
2023-05-08T11:08:28.186Z,3.30
2023-05-08T11:11:06.360Z,2.42
2023-05-08T11:13:37.305Z,2.70
2023-05-08T11:16:04.349Z,2.38
2023-05-08T11:18:45.616Z,2.55
2023-05-08T11:21:15.941Z,2.55
2023-05-08T11:23:42.521Z,2.30
2023-05-08T11:26:15.246Z,2.35
2023-05-08T11:29:02.081Z,2.50
2023-05-08T11:31:48.945Z,2.13
2023-05-08T11:34:34.082Z,1.88
2023-05-08T11:37:01.247Z,1.90
2023-05-08T11:39:27.809Z,2.10
2023-05-08T11:41:54.346Z,1.98
2023-05-08T11:44:21.123Z,2.15
2023-05-08T11:46:52.269Z,2.20
2023-05-08T11:49:24.734Z,2.25
2023-05-08T11:51:55.488Z,1.88
2023-05-08T11:54:22.539Z,2.17
2023-05-08T11:56:50.415Z,2.28
2023-05-08T11:59:17.777Z,1.88
2023-05-08T12:01:46.615Z,2.08
2023-05-08T12:04:23.802Z,2.00
2023-05-08T12:06:56.802Z,1.83
2023-05-08T12:09:23.407Z,2.20
2023-05-08T12:11:56.288Z,1.90
2023-05-08T12:14:23.198Z,1.90
2023-05-08T12:16:51.342Z,2.20
2023-05-08T12:19:17.922Z,2.00
2023-05-08T12:21:48.842Z,1.75
2023-05-08T12:24:18.829Z,1.90
2023-05-08T12:26:46.473Z,1.77
2023-05-08T12:29:12.992Z,1.83
2023-05-08T12:31:39.810Z,2.10
2023-05-08T12:34:06.683Z,1.95
2023-05-08T12:36:36.689Z,1.77
2023-05-08T12:39:11.400Z,2.20
2023-05-08T12:41:41.904Z,1.70
2023-05-08T12:44:16.889Z,1.40
2023-05-08T12:46:47.534Z,1.73
2023-05-08T12:49:14.192Z,1.98
2023-05-08T12:51:45.723Z,1.83
2023-05-08T12:54:12.704Z,1.90
2023-05-08T12:56:42.802Z,1.83
2023-05-08T12:59:09.284Z,1.60
2023-05-08T13:01:35.868Z,2.10
2023-05-08T13:04:03.330Z,1.75
2023-05-08T13:06:30.084Z,1.85
2023-05-08T13:08:56.727Z,1.67
2023-05-08T13:11:31.404Z,1.83
2023-05-08T13:13:58.052Z,2.00
2023-05-08T13:16:24.678Z,1.50
2023-05-08T13:18:51.227Z,1.73
2023-05-08T13:21:17.818Z,1.60
2023-05-08T13:23:44.518Z,1.70
2023-05-08T13:26:11.074Z,1.80
2023-05-08T13:28:37.624Z,1.92
2023-05-08T13:31:04.190Z,1.88
2023-05-08T13:33:30.795Z,1.95
2023-05-08T13:35:57.519Z,1.83
2023-05-08T13:38:24.023Z,1.70
2023-05-08T13:40:50.843Z,1.70
2023-05-08T13:43:17.625Z,1.83
2023-05-08T13:45:44.236Z,1.70
2023-05-08T13:48:10.839Z,1.70
2023-05-08T13:50:37.501Z,1.80
2023-05-08T13:53:04.821Z,1.67
2023-05-08T13:55:31.362Z,1.33
2023-05-08T13:57:58.241Z,1.67
2023-05-08T14:00:27.292Z,1.60
2023-05-08T14:02:54.683Z,1.17
2023-05-08T14:05:21.346Z,1.58
2023-05-08T14:07:48.366Z,1.48
2023-05-08T14:10:17.120Z,1.98
2023-05-08T14:12:44.041Z,1.63
2023-05-08T14:15:12.063Z,1.60
2023-05-08T14:17:39.096Z,1.55
2023-05-08T14:20:06.193Z,1.52
2023-05-08T14:22:32.762Z,1.50
2023-05-08T14:24:59.385Z,1.70
2023-05-08T14:27:25.945Z,1.80
2023-05-08T14:29:53.709Z,1.60
2023-05-08T14:32:20.372Z,1.73
2023-05-08T14:34:46.966Z,1.40
2023-05-08T14:37:13.653Z,1.67
2023-05-08T14:39:40.233Z,1.75
2023-05-08T14:42:22.323Z,1.70
2023-05-08T14:44:49.872Z,1.58
2023-05-08T14:47:16.571Z,1.73
2023-05-08T14:49:43.330Z,1.55
2023-05-08T14:52:09.968Z,1.60
2023-05-08T14:54:36.731Z,1.70
2023-05-08T14:57:03.422Z,1.60
2023-05-08T14:59:29.962Z,1.50
2023-05-08T15:01:56.674Z,1.30
2023-05-08T15:04:23.468Z,1.60
2023-05-08T15:06:50.122Z,1.50
2023-05-08T15:09:17.105Z,1.30
2023-05-08T15:11:43.825Z,1.42
2023-05-08T15:14:10.392Z,1.42
2023-05-08T15:16:37.069Z,1.42
2023-05-08T15:19:03.696Z,1.77
2023-05-08T15:21:30.225Z,1.80
2023-05-08T15:23:56.786Z,1.42
2023-05-08T15:26:23.435Z,1.50
2023-05-08T15:28:50.010Z,1.48
2023-05-08T15:31:17.041Z,1.63
2023-05-08T15:33:45.361Z,1.00
2023-05-08T15:36:15.559Z,1.67
2023-05-08T15:38:42.561Z,1.38
2023-05-08T15:41:14.534Z,1.48
2023-05-08T15:43:42.006Z,1.65
2023-05-08T15:46:08.575Z,1.80
2023-05-08T15:48:35.498Z,1.30
2023-05-08T15:51:02.057Z,1.58
2023-05-08T15:53:28.690Z,1.70
2023-05-08T15:55:55.839Z,1.70
2023-05-08T15:58:22.552Z,1.15
2023-05-08T16:00:49.532Z,1.50
2023-05-08T16:03:16.239Z,1.75
2023-05-08T16:05:43.013Z,1.20
2023-05-08T16:08:13.134Z,1.48
2023-05-08T16:10:40.735Z,1.65
2023-05-08T16:13:07.513Z,1.52
2023-05-08T16:15:34.109Z,1.10
2023-05-08T16:18:00.747Z,1.33
2023-05-08T16:20:27.351Z,1.73
2023-05-08T16:22:55.472Z,1.63
2023-05-08T16:25:22.216Z,1.30
2023-05-08T16:27:48.786Z,1.60
2023-05-08T16:30:15.406Z,1.58
2023-05-08T16:32:42.087Z,1.20
2023-05-08T16:35:08.983Z,1.45
2023-05-08T16:37:37.391Z,1.55
2023-05-08T16:40:04.477Z,1.30
2023-05-08T16:42:31.014Z,1.27
2023-05-08T16:44:57.593Z,1.60
2023-05-08T16:47:24.130Z,1.70
2023-05-08T16:49:50.688Z,1.77
2023-05-08T16:52:17.290Z,1.30
2023-05-08T16:54:43.853Z,1.17
2023-05-08T16:57:10.454Z,1.30
2023-05-08T16:59:37.094Z,1.50
2023-05-08T17:02:03.716Z,1.42
2023-05-08T17:04:30.950Z,1.50
2023-05-08T17:06:57.609Z,1.48
2023-05-08T17:09:25.358Z,1.60
2023-05-08T17:11:51.966Z,1.48
2023-05-08T17:14:18.663Z,1.58
2023-05-08T17:16:45.211Z,1.75
2023-05-08T17:19:11.845Z,1.45
2023-05-08T17:21:38.386Z,1.70
2023-05-08T17:24:05.023Z,1.83
2023-05-08T17:26:32.063Z,2.35
2023-05-08T17:28:58.690Z,2.50
2023-05-08T17:31:25.784Z,2.30
2023-05-08T17:33:52.499Z,1.92
2023-05-08T17:36:19.024Z,1.77
2023-05-08T17:38:46.485Z,1.52
2023-05-08T17:41:13.924Z,1.92
2023-05-08T17:43:40.654Z,2.05
2023-05-08T17:46:07.875Z,1.80
2023-05-08T17:48:34.536Z,1.35
2023-05-08T17:51:02.785Z,2.33
2023-05-08T17:53:30.730Z,1.98
2023-05-08T17:55:57.521Z,2.00
2023-05-08T17:58:24.297Z,1.73
2023-05-08T18:00:50.838Z,1.50
2023-05-08T18:03:17.451Z,1.88
2023-05-08T18:05:44.126Z,1.80
2023-05-08T18:08:10.940Z,1.98
2023-05-08T18:10:39.362Z,1.80
2023-05-08T18:13:06.297Z,2.17
2023-05-08T18:15:36.095Z,1.83
2023-05-08T18:18:02.967Z,1.83
2023-05-08T18:20:29.552Z,2.00
2023-05-08T18:22:56.123Z,2.00
2023-05-08T18:25:22.648Z,1.95
2023-05-08T18:27:50.585Z,2.10
2023-05-08T18:30:17.492Z,1.90
2023-05-08T18:32:44.258Z,2.03
2023-05-08T18:35:10.859Z,2.20
2023-05-08T18:37:37.574Z,1.70
2023-05-08T18:40:05.170Z,2.33
2023-05-08T18:42:31.746Z,1.77
2023-05-08T18:45:00.326Z,2.03
2023-05-08T18:47:26.924Z,2.88
2023-05-08T18:49:53.564Z,2.00
2023-05-08T18:52:20.159Z,1.98
2023-05-08T18:54:46.741Z,1.92
2023-05-08T18:57:13.372Z,2.00
2023-05-08T18:59:40.303Z,2.03
2023-05-08T19:02:06.839Z,1.90
2023-05-08T19:04:33.581Z,1.85
2023-05-08T19:07:00.864Z,2.17
2023-05-08T19:09:27.627Z,1.73
2023-05-08T19:11:54.976Z,2.22
2023-05-08T19:14:21.484Z,1.75
2023-05-08T19:16:48.143Z,1.70
2023-05-08T19:19:14.684Z,1.63
2023-05-08T19:21:41.304Z,1.75
2023-05-08T19:24:08.173Z,1.73
2023-05-08T19:26:34.745Z,1.83
2023-05-08T19:29:01.523Z,1.92
2023-05-08T19:31:28.189Z,1.98
2023-05-08T19:33:54.969Z,1.95
2023-05-08T19:36:21.604Z,1.80
2023-05-08T19:38:48.138Z,1.98
2023-05-08T19:41:14.690Z,2.05
2023-05-08T19:43:41.280Z,1.80
2023-05-08T19:46:07.864Z,2.08
2023-05-08T19:48:34.466Z,1.73
2023-05-08T19:51:08.144Z,1.67
2023-05-08T19:53:34.826Z,2.00
2023-05-08T19:56:01.394Z,1.70
2023-05-08T19:58:28.028Z,1.98
2023-05-08T20:00:54.700Z,1.70
2023-05-08T20:03:21.497Z,1.65
2023-05-08T20:05:48.162Z,1.88
2023-05-08T20:08:15.753Z,1.90
2023-05-08T20:10:42.444Z,2.38
2023-05-08T20:13:09.123Z,1.92
2023-05-08T20:15:35.726Z,2.15
2023-05-08T20:18:02.867Z,1.90
2023-05-08T20:20:29.855Z,1.98
2023-05-08T20:22:56.419Z,2.00
2023-05-08T20:25:23.163Z,1.90
2023-05-08T20:27:49.703Z,2.03
2023-05-08T20:30:16.507Z,2.22
2023-05-08T20:32:43.362Z,2.30
2023-05-08T20:35:12.250Z,2.08
2023-05-08T20:37:44.180Z,2.10
2023-05-08T20:40:12.540Z,2.20
2023-05-08T20:42:41.542Z,2.50
2023-05-08T20:45:08.829Z,2.35
2023-05-08T20:47:35.630Z,2.30
2023-05-08T20:50:02.711Z,2.28
2023-05-08T20:52:30.201Z,2.20
2023-05-08T20:54:56.784Z,2.00
2023-05-08T20:57:23.387Z,2.30
2023-05-08T20:59:49.902Z,1.95
2023-05-08T21:02:16.562Z,2.13
2023-05-08T21:04:43.174Z,2.13
2023-05-08T21:07:09.792Z,2.22
2023-05-08T21:09:36.350Z,2.00
2023-05-08T21:12:03.225Z,1.90
2023-05-08T21:14:29.822Z,1.90
2023-05-08T21:16:56.618Z,1.70
2023-05-08T21:19:23.803Z,2.20
2023-05-08T21:21:50.322Z,2.25
2023-05-08T21:24:17.152Z,2.17
2023-05-08T21:26:43.686Z,2.00
2023-05-08T21:29:11.037Z,2.08
2023-05-08T21:31:37.753Z,2.30
2023-05-08T21:34:04.350Z,2.05
2023-05-08T21:36:32.189Z,2.00
2023-05-08T21:38:58.749Z,2.25
2023-05-08T21:41:25.346Z,1.58
2023-05-08T21:43:51.876Z,2.17
2023-05-08T21:46:18.500Z,2.10
2023-05-08T21:48:45.168Z,1.65
2023-05-08T21:51:11.697Z,2.10
2023-05-08T21:53:38.344Z,1.60
2023-05-08T21:56:05.203Z,1.98
2023-05-08T21:58:31.794Z,2.10
2023-05-08T22:00:58.898Z,1.88
2023-05-08T22:03:25.723Z,2.00
2023-05-08T22:05:52.356Z,1.65
2023-05-08T22:08:18.853Z,2.13
2023-05-08T22:10:46.386Z,2.05
2023-05-08T22:13:13.231Z,1.98
2023-05-08T22:15:39.857Z,2.08
2023-05-08T22:18:06.518Z,1.60
2023-05-08T22:20:33.299Z,2.20
2023-05-08T22:22:59.830Z,2.17
2023-05-08T22:25:26.939Z,1.63
2023-05-08T22:27:53.549Z,1.80
2023-05-08T22:30:20.215Z,1.90
2023-05-08T22:32:52.155Z,1.90
2023-05-08T22:35:19.287Z,1.90
2023-05-08T22:37:45.885Z,1.65
2023-05-08T22:40:12.743Z,1.90
2023-05-08T22:42:39.279Z,2.22
2023-05-08T22:45:06.338Z,1.90
2023-05-08T22:47:33.376Z,2.00
2023-05-08T22:49:59.926Z,2.08
2023-05-08T22:52:27.458Z,1.88
2023-05-08T22:54:54.050Z,2.00
2023-05-08T22:57:20.564Z,2.00
2023-05-08T22:59:47.205Z,2.10
2023-05-08T23:02:13.685Z,1.85
2023-05-08T23:04:40.278Z,2.20
2023-05-08T23:07:06.823Z,2.10
2023-05-08T23:09:33.323Z,2.50
2023-05-08T23:11:59.883Z,1.80
2023-05-08T23:14:26.448Z,1.95
2023-05-08T23:16:53.072Z,1.60
2023-05-08T23:19:19.670Z,2.15
2023-05-08T23:21:46.213Z,1.85
2023-05-08T23:24:12.825Z,1.90
2023-05-08T23:26:41.946Z,2.03
2023-05-08T23:29:08.737Z,2.00
2023-05-08T23:31:35.451Z,1.90
2023-05-08T23:34:02.006Z,1.77
2023-05-08T23:36:28.521Z,1.70
2023-05-08T23:38:55.044Z,1.58
2023-05-08T23:41:22.384Z,1.77
2023-05-08T23:43:48.964Z,1.70
2023-05-08T23:46:15.961Z,1.27
2023-05-08T23:48:42.504Z,1.85
2023-05-08T23:51:09.106Z,1.90
2023-05-08T23:53:35.611Z,1.80
2023-05-08T23:56:02.223Z,2.05
2023-05-08T23:58:28.762Z,1.90
